Shreveport Regional Airport
KSHV : now visible

Airfield :











YOU CAN JOIN US ON...

 
LOGIN :

Register | Disclaimer

   EN    FR    IT 

 









Legend :    VFR   Marginal VFR   IFR   Intensive IFR   Very Intensive IFR
Visi :
Ceiling :
>= 8 km
>= 3000ft
5 to 8 km
1000 to 3000 ft
1500m to 5 km
500 to 1000 ft
800 to 1500m
200 to 500 ft
< 800m
< 200 ft
Symbols :   Thunderstorms  Fog  Heavy snow  Heavy precipitations  Wind > 20 kt







- Airport Elevation : 258 ft
- IATA code : SHV


KSHV - Shreveport Regional

CURRENT METAR :
  • 182356Z 06013KT 10SM SCT150 OVC250 08/M03 A3028 RMK AO2 SLP252 T00781028 10106 20078 53002 $

EXPIRED METARs :
  • 182256Z 04012KT 10SM FEW140 BKN260 09/M02 A3027 RMK AO2 SLP251 T00941022 $
  • 182156Z 04013KT 10SM SCT190 BKN280 10/M02 A3026 RMK AO2 SLP247 T01001022 $

TAF KSHV
Valid from the 19 at 00:00 until the 20 at 00:00 UTC


182339Z 1900/1924 04012KT P6SM FEW140 BKN250
FM190600 05012KT P6SM BKN100 OVC200
FM190900 06012G18KT P6SM VCSH BKN050 OVC100
FM191200 06012G18KT P6SM -SHRA OVC040
FM191500 06013G20KT 5SM -SHRA BR OVC015
FM191800 06012G18KT 4SM SHRA VCTS BKN007 OVC015CB
KZFW FIR / North America



MET'MAP, your aeronautical weather chart ! - Copyright ORBIFLY December 2007 - Disclaimer

ORBIFLY MET'MAP TEAM :

Programming & Development : Alexandra Zaïnal
Concept & Development : Baudouin d'Aumeries
Co-Development & Prog : Marc-Olivier Méhu
Technical & hardware support : Manuel Goepfert

Contact : metmap@orbifly.com




SOURCES & CREDITS :

   NOAA       Earth
Advisory